Time;durP1;ratioP1;P1;durP2;ratioP2;P2;SDS_P1;SDS_P2;PMS_P1;PMS_P2;Temp;Humidity;BMP_temperature;BMP_pressure;BME280_temperature;BME280_humidity;BME280_pressure;Samples;Min_cycle;Max_cycle;Signal;HPM_P1;HPM_P2
2022/04/28 00:02:20;;;;;;;7.80;7.40;;;21.90;56.00;;;;;;5052746;28;20452;-46
2022/04/28 00:04:46;;;;;;;8.10;7.90;;;21.90;56.00;;;;;;5052756;28;20808;-45
2022/04/28 00:07:15;;;;;;;7.40;7.20;;;21.90;56.00;;;;;;5052475;28;20483;-46
2022/04/28 00:09:41;;;;;;;7.93;7.73;;;21.90;56.00;;;;;;5035943;28;20973;-45
2022/04/28 00:12:10;;;;;;;8.10;7.90;;;21.90;56.00;;;;;;5032837;28;20452;-45
2022/04/28 00:14:37;;;;;;;7.50;7.30;;;21.90;56.10;;;;;;5032539;28;20508;-45
2022/04/28 00:17:04;;;;;;;8.23;8.03;;;21.90;56.00;;;;;;5032483;28;20810;-45
2022/04/28 00:19:31;;;;;;;7.50;7.30;;;21.80;56.00;;;;;;5047601;28;20444;-45
2022/04/28 00:21:58;;;;;;;7.83;7.63;;;21.90;56.00;;;;;;5052428;28;20818;-45
2022/04/28 00:24:26;;;;;;;7.80;7.60;;;21.80;56.00;;;;;;5052413;28;20444;-45
2022/04/28 00:26:53;;;;;;;7.90;7.70;;;21.80;56.00;;;;;;5045200;28;20488;-45
2022/04/28 00:29:20;;;;;;;8.10;7.90;;;21.80;56.10;;;;;;5042909;28;20452;-45
2022/04/28 00:31:47;;;;;;;8.07;7.87;;;21.80;56.10;;;;;;5052286;28;20452;-45
2022/04/28 00:34:14;;;;;;;7.80;7.60;;;21.80;56.00;;;;;;5052227;28;20452;-45
2022/04/28 00:36:41;;;;;;;8.43;8.13;;;21.70;56.00;;;;;;5046839;28;20461;-45
2022/04/28 00:39:08;;;;;;;8.20;8.00;;;21.70;56.00;;;;;;5032249;28;20449;-47
2022/04/28 00:41:36;;;;;;;9.40;9.10;;;21.70;55.90;;;;;;5032307;28;20445;-45
2022/04/28 00:44:03;;;;;;;7.63;7.43;;;21.70;55.90;;;;;;5032151;28;20452;-45
2022/04/28 00:46:30;;;;;;;8.13;7.93;;;21.70;55.90;;;;;;5035137;28;20981;-45
2022/04/28 00:51:41;;;;;;;8.10;7.80;;;21.70;55.90;;;;;;5052024;28;20419;-46
2022/04/28 00:54:09;;;;;;;8.47;8.17;;;21.60;55.80;;;;;;5051611;28;20455;-45
2022/04/28 00:56:37;;;;;;;8.23;8.00;;;21.70;56.00;;;;;;5034008;28;20488;-45
2022/04/28 00:59:04;;;;;;;7.77;7.57;;;21.60;56.00;;;;;;5031877;28;20445;-45
2022/04/28 01:01:31;;;;;;;8.07;7.87;;;21.60;56.00;;;;;;5031894;28;20448;-46
2022/04/28 01:03:58;;;;;;;8.17;7.97;;;21.60;55.90;;;;;;5031854;28;20449;-45
2022/04/28 01:06:25;;;;;;;7.90;7.70;;;21.60;56.00;;;;;;5047148;28;20826;-47
2022/04/28 01:08:52;;;;;;;7.50;7.30;;;21.60;56.00;;;;;;5052067;28;20441;-45
2022/04/28 01:11:18;;;;;;;7.90;7.70;;;21.60;56.00;;;;;;5051648;28;20447;-44
2022/04/28 01:13:47;;;;;;;8.00;7.80;;;21.60;56.00;;;;;;5051565;28;20451;-45
2022/04/28 01:16:13;;;;;;;10.03;9.63;;;21.60;56.10;;;;;;5049791;28;20476;-45
2022/04/28 01:18:40;;;;;;;8.30;8.10;;;21.50;56.00;;;;;;5051384;28;20436;-45
2022/04/28 01:21:09;;;;;;;8.77;8.47;;;21.50;56.10;;;;;;5051720;28;20631;-45
2022/04/28 01:23:37;;;;;;;8.90;8.60;;;21.60;56.10;;;;;;5051835;28;20445;-45
2022/04/28 01:26:05;;;;;;;9.30;9.00;;;21.60;56.10;;;;;;5039000;28;20469;-45
2022/04/28 01:28:33;;;;;;;8.93;8.73;;;21.50;56.10;;;;;;5031263;28;21027;-45
2022/04/28 01:31:00;;;;;;;8.43;8.23;;;21.50;56.10;;;;;;5043347;28;20456;-46
2022/04/28 01:33:27;;;;;;;8.60;8.40;;;21.50;56.10;;;;;;5051578;28;20466;-45
2022/04/28 01:35:54;;;;;;;8.80;8.50;;;21.50;56.10;;;;;;5040379;28;20480;-47
2022/04/28 01:38:22;;;;;;;9.03;8.73;;;21.50;56.10;;;;;;5031474;28;20434;-45
2022/04/28 01:40:48;;;;;;;9.07;8.87;;;21.50;56.10;;;;;;5031671;28;20453;-45
2022/04/28 01:43:15;;;;;;;9.30;9.10;;;21.40;56.10;;;;;;5031404;28;20452;-44
2022/04/28 01:45:42;;;;;;;8.90;8.60;;;21.40;56.10;;;;;;5039803;28;20977;-46
2022/04/28 01:48:09;;;;;;;8.50;8.30;;;21.40;56.00;;;;;;5051036;28;20480;-45
2022/04/28 01:50:35;;;;;;;8.90;8.60;;;21.40;56.00;;;;;;5046055;28;20441;-45
2022/04/28 01:55:48;;;;;;;8.40;8.20;;;21.40;56.00;;;;;;5032598;28;20445;-45
2022/04/28 01:58:15;;;;;;;8.90;8.70;;;21.40;56.00;;;;;;5037666;28;20809;-45
2022/04/28 02:00:42;;;;;;;9.00;8.70;;;21.40;56.00;;;;;;5031597;28;20448;-44
2022/04/28 02:03:08;;;;;;;8.70;8.50;;;21.40;56.00;;;;;;5046791;28;21012;-45
2022/04/28 02:05:35;;;;;;;9.10;8.80;;;21.30;55.90;;;;;;5051009;28;20464;-45
2022/04/28 02:08:02;;;;;;;8.80;8.40;;;21.30;55.90;;;;;;5054608;28;20487;-45
2022/04/28 02:10:29;;;;;;;8.00;7.80;;;21.30;55.80;;;;;;5055045;28;20813;-45
2022/04/28 02:12:57;;;;;;;8.83;8.63;;;21.30;55.80;;;;;;5040973;28;20449;-45
2022/04/28 02:15:24;;;;;;;8.30;8.10;;;21.30;55.80;;;;;;5034894;28;20496;-45
2022/04/28 02:17:51;;;;;;;7.87;7.67;;;21.30;55.80;;;;;;5034804;28;20445;-46
2022/04/28 02:20:18;;;;;;;8.40;8.10;;;21.30;55.90;;;;;;5034817;28;20453;-45
2022/04/28 02:22:45;;;;;;;7.67;7.47;;;21.30;55.80;;;;;;5046784;28;20487;-45
2022/04/28 02:25:12;;;;;;;8.40;8.20;;;21.30;55.80;;;;;;5054798;28;20468;-45
2022/04/28 02:27:39;;;;;;;8.13;7.93;;;21.20;55.70;;;;;;5054306;28;20843;-50
2022/04/28 02:30:08;;;;;;;7.70;7.50;;;21.20;55.70;;;;;;5054677;28;20440;-46
2022/04/28 02:35:16;;;;;;;8.77;8.47;;;21.20;56.10;;;;;;5034318;28;20445;-59
2022/04/28 02:37:42;;;;;;;8.30;8.10;;;21.20;57.20;;;;;;5034467;28;20444;-52
2022/04/28 02:40:10;;;;;;;8.80;8.50;;;21.20;58.50;;;;;;5038390;28;20827;-47
2022/04/28 02:42:37;;;;;;;8.77;8.47;;;21.30;59.50;;;;;;5052704;28;20448;-60
2022/04/28 02:45:04;;;;;;;8.90;8.60;;;21.30;60.80;;;;;;5054373;28;20479;-60
2022/04/28 02:47:33;;;;;;;8.67;8.37;;;21.40;61.80;;;;;;5054230;28;21029;-46
2022/04/28 02:50:00;;;;;;;8.20;8.00;;;21.50;61.80;;;;;;5051314;28;20448;-43
2022/04/28 02:52:27;;;;;;;8.47;8.17;;;21.40;60.60;;;;;;5034335;28;20445;-43
2022/04/28 02:54:53;;;;;;;8.60;8.30;;;21.30;60.50;;;;;;5034416;28;20441;-45
2022/04/28 02:57:20;;;;;;;8.50;8.30;;;21.20;60.20;;;;;;5034032;28;20954;-44
2022/04/28 02:59:47;;;;;;;8.63;8.40;;;21.20;60.10;;;;;;5035410;28;20445;-45
2022/04/28 03:02:13;;;;;;;7.20;6.90;;;21.10;60.50;;;;;;5033419;28;20476;-47
2022/04/28 03:04:41;;;;;;;8.40;8.20;;;21.10;60.90;;;;;;5033925;28;20452;-44
2022/04/28 03:12:42;;;;;;;8.33;8.13;;;21.20;59.80;;;;;;5048127;28;20421;-53
2022/04/28 03:15:10;;;;;;;7.93;7.73;;;21.20;60.20;;;;;;5054359;28;20460;-53
2022/04/28 03:17:36;;;;;;;8.80;8.60;;;21.30;60.70;;;;;;5054008;28;20808;-52
2022/04/28 03:20:06;;;;;;;8.60;8.40;;;21.30;60.40;;;;;;5037399;28;20444;-50
2022/04/28 03:22:35;;;;;;;8.77;8.37;;;21.50;60.40;;;;;;5033824;28;20450;-47
2022/04/28 03:25:02;;;;;;;8.40;8.10;;;21.30;59.80;;;;;;5033561;28;20473;-47
2022/04/28 03:27:32;;;;;;;8.80;8.50;;;21.30;60.10;;;;;;5033260;28;20998;-48
2022/04/28 03:29:58;;;;;;;9.10;8.80;;;21.30;60.10;;;;;;5048525;28;20455;-48
2022/04/28 03:32:25;;;;;;;8.27;8.00;;;21.20;60.30;;;;;;5053447;28;20451;-47
2022/04/28 03:34:52;;;;;;;8.30;8.10;;;21.20;60.30;;;;;;5053412;28;20455;-47
2022/04/28 03:37:20;;;;;;;8.20;8.00;;;21.20;60.50;;;;;;5053232;28;20448;-49
2022/04/28 03:39:47;;;;;;;8.93;8.73;;;21.20;60.40;;;;;;5039681;28;20449;-52
2022/04/28 03:42:13;;;;;;;9.00;8.70;;;21.20;59.80;;;;;;5033256;28;20446;-46
2022/04/28 03:44:42;;;;;;;8.90;8.63;;;21.30;59.70;;;;;;5033211;28;20445;-45
2022/04/28 03:47:09;;;;;;;8.37;8.17;;;21.30;59.60;;;;;;5038088;28;20452;-47
2022/04/28 03:49:36;;;;;;;8.77;8.47;;;21.20;59.60;;;;;;5053031;28;20476;-47
2022/04/28 03:52:04;;;;;;;9.50;9.20;;;21.10;59.20;;;;;;5053240;28;20838;-47
2022/04/28 03:54:32;;;;;;;8.97;8.77;;;21.10;59.00;;;;;;5053002;28;20448;-47
2022/04/28 03:56:58;;;;;;;8.13;7.93;;;21.10;59.50;;;;;;5051121;28;20468;-47
2022/04/28 03:59:25;;;;;;;9.00;8.60;;;21.10;59.80;;;;;;5036022;28;20445;-49
2022/04/28 04:01:52;;;;;;;8.90;8.60;;;21.10;60.30;;;;;;5033037;28;20452;-47
2022/04/28 04:04:19;;;;;;;9.47;9.07;;;21.10;60.50;;;;;;5033066;28;20449;-47
2022/04/28 04:06:45;;;;;;;9.07;8.77;;;21.00;60.10;;;;;;5046140;28;20479;-47
2022/04/28 04:09:12;;;;;;;8.77;8.53;;;21.00;60.30;;;;;;5052822;28;20484;-47
2022/04/28 04:11:41;;;;;;;8.50;8.30;;;21.00;60.20;;;;;;5052744;28;20452;-47
2022/04/28 04:14:07;;;;;;;8.77;8.40;;;21.00;59.80;;;;;;5052700;28;20448;-49
2022/04/28 04:16:34;;;;;;;9.93;9.43;;;21.10;59.70;;;;;;5040305;28;20465;-47
2022/04/28 04:19:01;;;;;;;12.70;11.10;;;21.20;62.80;;;;;;5032545;28;20449;-47
2022/04/28 04:21:28;;;;;;;11.90;10.30;;;21.30;70.80;;;;;;5032616;28;20456;-46
2022/04/28 04:23:54;;;;;;;13.90;11.80;;;21.30;71.80;;;;;;5032589;28;20468;-46
2022/04/28 04:26:21;;;;;;;11.17;10.40;;;21.30;68.80;;;;;;5039635;28;20472;-48
2022/04/28 04:28:49;;;;;;;19.30;12.27;;;21.20;69.20;;;;;;5034281;28;20481;-45
2022/04/28 04:34:00;;;;;;;12.17;11.40;;;21.30;72.10;;;;;;5032673;28;20425;-44
2022/04/28 04:36:27;;;;;;;13.03;11.70;;;21.30;71.10;;;;;;5031960;28;20472;-44
2022/04/28 04:38:54;;;;;;;15.80;11.33;;;21.30;70.30;;;;;;5032107;28;20927;-45
2022/04/28 04:41:21;;;;;;;12.93;11.60;;;21.30;69.70;;;;;;5032181;28;20449;-44
2022/04/28 04:43:49;;;;;;;13.23;12.03;;;21.30;68.90;;;;;;5032265;28;20445;-44
2022/04/28 04:46:16;;;;;;;11.83;11.03;;;21.30;68.30;;;;;;5031975;28;20848;-43
2022/04/28 04:48:42;;;;;;;11.97;10.97;;;21.30;67.70;;;;;;5031867;28;20844;-44
2022/04/28 04:51:09;;;;;;;12.43;11.33;;;21.30;67.20;;;;;;5032053;28;20441;-44
2022/04/28 04:53:36;;;;;;;12.27;11.40;;;21.30;66.60;;;;;;5031905;28;20817;-44
2022/04/28 04:56:03;;;;;;;14.30;12.67;;;21.30;66.30;;;;;;5031863;28;21005;-45
2022/04/28 04:58:29;;;;;;;12.73;11.83;;;21.30;65.80;;;;;;5031716;28;20449;-44
2022/04/28 05:00:58;;;;;;;12.87;12.13;;;21.30;65.50;;;;;;5031878;28;20448;-44
2022/04/28 05:03:24;;;;;;;12.30;11.23;;;21.30;65.30;;;;;;5031886;28;20453;-44
2022/04/28 05:05:53;;;;;;;12.00;11.00;;;21.20;64.90;;;;;;5031806;28;20466;-45
2022/04/28 05:08:19;;;;;;;11.83;11.00;;;21.30;64.70;;;;;;5031472;28;20854;-45
2022/04/28 05:10:46;;;;;;;12.73;11.70;;;21.20;65.20;;;;;;5032049;28;20455;-44
2022/04/28 05:13:13;;;;;;;13.30;10.97;;;21.20;64.20;;;;;;5031679;28;20809;-48
2022/04/28 05:15:40;;;;;;;11.27;10.50;;;21.20;63.80;;;;;;5031478;28;20464;-44
2022/04/28 05:18:08;;;;;;;10.27;9.57;;;21.20;63.70;;;;;;5031526;28;20445;-44
2022/04/28 05:20:34;;;;;;;11.43;10.40;;;21.20;63.40;;;;;;5031657;28;20946;-44
2022/04/28 05:23:01;;;;;;;14.07;12.23;;;21.20;63.10;;;;;;5031656;28;20453;-45
2022/04/28 05:25:29;;;;;;;11.07;10.30;;;21.20;63.00;;;;;;5031795;28;20816;-44
2022/04/28 05:27:56;;;;;;;10.47;9.43;;;21.20;62.70;;;;;;5031287;28;20465;-43
2022/04/28 05:30:23;;;;;;;11.57;10.67;;;21.10;62.70;;;;;;5031524;28;20449;-44
2022/04/28 05:32:50;;;;;;;10.43;9.80;;;21.10;62.60;;;;;;5031623;28;20441;-46
2022/04/28 05:35:18;;;;;;;11.93;10.93;;;21.10;62.40;;;;;;5031527;28;20465;-44
2022/04/28 05:37:45;;;;;;;11.30;10.70;;;21.10;62.30;;;;;;5031398;28;20441;-44
2022/04/28 05:40:13;;;;;;;11.33;10.73;;;21.10;62.10;;;;;;5031706;28;20839;-44
2022/04/28 05:48:09;;;;;;;10.13;9.60;;;21.00;61.70;;;;;;5035662;28;20491;-44
2022/04/28 05:50:38;;;;;;;11.20;10.60;;;21.00;61.60;;;;;;5035404;28;20786;-48
2022/04/28 05:53:05;;;;;;;11.43;10.90;;;21.00;61.40;;;;;;5035317;28;20452;-45
2022/04/28 05:55:32;;;;;;;10.90;10.20;;;21.00;61.40;;;;;;5035194;28;20481;-47
2022/04/28 05:57:59;;;;;;;10.80;10.10;;;21.00;61.30;;;;;;5035085;28;20523;-45
2022/04/28 06:00:26;;;;;;;11.10;10.40;;;21.00;61.20;;;;;;5035527;28;20448;-45
2022/04/28 06:02:53;;;;;;;11.80;11.20;;;21.00;61.10;;;;;;5035465;28;20951;-44
2022/04/28 06:05:20;;;;;;;10.93;10.17;;;20.90;60.90;;;;;;5035150;28;20464;-44
2022/04/28 06:07:49;;;;;;;11.30;10.60;;;21.00;60.80;;;;;;5034744;28;20444;-45
2022/04/28 06:10:16;;;;;;;11.17;10.63;;;20.90;60.80;;;;;;5035036;28;20476;-45
2022/04/28 06:12:43;;;;;;;9.73;9.30;;;20.90;60.90;;;;;;5035323;28;20446;-45
2022/04/28 06:15:13;;;;;;;11.87;11.03;;;21.00;60.70;;;;;;5034958;28;20491;-43
2022/04/28 06:17:40;;;;;;;10.57;10.07;;;21.00;60.60;;;;;;5034693;28;20449;-47
2022/04/28 06:20:08;;;;;;;10.60;9.97;;;20.90;60.50;;;;;;5034846;28;20445;-44
2022/04/28 06:22:35;;;;;;;10.33;9.83;;;20.90;60.40;;;;;;5034839;28;20437;-45
2022/04/28 06:25:03;;;;;;;10.90;10.40;;;20.90;60.30;;;;;;5034640;28;20492;-44
2022/04/28 06:27:30;;;;;;;10.23;9.67;;;20.90;60.30;;;;;;5034582;28;20449;-44
2022/04/28 06:29:57;;;;;;;10.27;9.80;;;21.00;60.20;;;;;;5034547;28;20503;-44
2022/04/28 06:32:23;;;;;;;10.40;9.80;;;21.00;60.00;;;;;;5034605;28;20449;-44
2022/04/28 06:34:50;;;;;;;11.30;10.80;;;20.90;59.90;;;;;;5034548;28;20449;-44
2022/04/28 06:37:17;;;;;;;11.00;10.60;;;20.90;59.90;;;;;;5034384;28;20503;-47
2022/04/28 06:39:44;;;;;;;11.57;10.93;;;20.90;60.70;;;;;;5034472;28;20452;-44
2022/04/28 06:42:13;;;;;;;11.00;10.37;;;20.90;60.00;;;;;;5034411;28;20447;-44
2022/04/28 06:44:40;;;;;;;10.70;10.20;;;20.90;59.90;;;;;;5034246;28;20515;-44
2022/04/28 06:47:07;;;;;;;11.37;10.87;;;20.90;59.80;;;;;;5036194;28;20931;-45
2022/04/28 06:49:34;;;;;;;9.83;9.33;;;20.90;59.90;;;;;;5035829;28;21013;-46
2022/04/28 06:52:01;;;;;;;10.27;9.77;;;20.90;59.80;;;;;;5034699;28;20449;-45
2022/04/28 06:54:28;;;;;;;10.53;10.03;;;20.90;59.80;;;;;;5035312;28;20456;-46
2022/04/28 06:56:55;;;;;;;9.90;9.47;;;20.90;59.80;;;;;;5035418;28;20496;-47
2022/04/28 06:59:23;;;;;;;9.73;9.23;;;20.90;59.60;;;;;;5035433;28;20449;-47
2022/04/28 07:01:50;;;;;;;9.30;8.90;;;20.90;59.60;;;;;;5035158;28;20446;-46
2022/04/28 07:04:17;;;;;;;10.23;9.70;;;20.90;59.70;;;;;;5035135;28;20441;-48
2022/04/28 07:06:43;;;;;;;11.40;10.60;;;20.90;59.60;;;;;;5034798;28;20584;-48
2022/04/28 07:09:10;;;;;;;9.73;9.43;;;20.90;59.60;;;;;;5034905;28;20492;-46
2022/04/28 07:11:37;;;;;;;9.23;8.93;;;20.80;59.50;;;;;;5035143;28;20449;-45
2022/04/28 07:14:04;;;;;;;10.27;9.57;;;20.90;59.40;;;;;;5034840;28;20452;-46
2022/04/28 07:16:32;;;;;;;9.77;9.33;;;20.90;59.20;;;;;;5034853;28;20473;-48
2022/04/28 07:18:59;;;;;;;9.10;8.70;;;20.90;59.20;;;;;;5034939;28;20442;-46
2022/04/28 07:21:25;;;;;;;9.97;9.57;;;20.90;59.30;;;;;;5034676;28;20456;-46
2022/04/28 07:23:52;;;;;;;10.43;9.93;;;20.80;59.10;;;;;;5034822;28;20456;-48
2022/04/28 07:26:19;;;;;;;10.03;9.53;;;20.80;59.10;;;;;;5034205;28;20967;-46
2022/04/28 07:28:46;;;;;;;9.90;9.50;;;20.90;59.20;;;;;;5034383;28;21001;-47
2022/04/28 07:31:12;;;;;;;11.10;10.40;;;20.80;59.10;;;;;;5034445;28;20441;-49
2022/04/28 07:33:40;;;;;;;9.20;8.90;;;20.90;59.10;;;;;;5034774;28;20456;-49
2022/04/28 07:36:07;;;;;;;10.87;10.40;;;20.80;59.00;;;;;;5034003;28;20821;-45
2022/04/28 07:38:34;;;;;;;9.50;9.10;;;20.90;59.00;;;;;;5034355;28;20448;-45
2022/04/28 07:41:02;;;;;;;9.67;9.33;;;20.80;58.90;;;;;;5034102;28;20456;-46
2022/04/28 07:43:29;;;;;;;10.23;9.63;;;20.90;59.00;;;;;;5033969;28;20449;-45
2022/04/28 07:45:56;;;;;;;10.10;9.80;;;20.80;59.00;;;;;;5034018;28;20481;-47
2022/04/28 07:48:22;;;;;;;10.17;9.77;;;20.90;58.90;;;;;;5033792;28;20464;-45
2022/04/28 07:50:51;;;;;;;9.70;9.40;;;20.90;58.90;;;;;;5033888;28;20476;-46
2022/04/28 07:53:18;;;;;;;8.87;8.57;;;20.80;58.80;;;;;;5033785;28;20450;-45
2022/04/28 07:56:10;;;;;;;10.43;9.83;;;20.80;58.80;;;;;;5033977;28;20469;-47
2022/04/28 07:58:31;;;;;;;10.07;9.53;;;20.80;58.80;;;;;;5033605;28;20452;-45
2022/04/28 08:00:59;;;;;;;9.30;8.90;;;20.90;58.80;;;;;;5033712;28;20453;-45
2022/04/28 08:03:25;;;;;;;9.20;8.90;;;20.80;58.70;;;;;;5033756;28;20484;-45
2022/04/28 08:05:54;;;;;;;10.27;9.87;;;20.80;58.60;;;;;;5033293;28;20488;-45
2022/04/28 08:08:21;;;;;;;9.30;8.90;;;20.90;58.60;;;;;;5033648;28;20858;-46
2022/04/28 08:10:48;;;;;;;9.70;9.40;;;20.90;58.60;;;;;;5033692;28;20492;-45
2022/04/28 08:13:15;;;;;;;8.70;8.50;;;20.90;58.60;;;;;;5033749;28;20445;-47
2022/04/28 08:15:42;;;;;;;9.40;9.10;;;20.80;58.50;;;;;;5033482;28;20472;-48
2022/04/28 08:18:09;;;;;;;8.90;8.67;;;20.80;58.50;;;;;;5033432;28;20452;-46
2022/04/28 08:20:36;;;;;;;8.83;8.53;;;20.90;58.60;;;;;;5033488;28;20438;-46
2022/04/28 08:23:04;;;;;;;10.90;10.50;;;20.90;58.50;;;;;;5033321;28;20816;-45
2022/04/28 08:25:31;;;;;;;9.60;9.20;;;20.80;58.40;;;;;;5033182;28;20909;-45
2022/04/28 08:27:58;;;;;;;9.00;8.70;;;20.80;58.30;;;;;;5033709;28;20946;-46
2022/04/28 08:30:25;;;;;;;9.30;8.83;;;20.90;58.20;;;;;;5034070;28;20847;-47
2022/04/28 08:32:52;;;;;;;9.37;9.07;;;20.90;58.30;;;;;;5034160;28;20449;-45
2022/04/28 08:35:19;;;;;;;8.70;8.50;;;20.90;58.30;;;;;;5033648;28;20523;-46
2022/04/28 08:37:46;;;;;;;9.00;8.70;;;20.90;58.20;;;;;;5032912;28;20442;-47
2022/04/28 08:40:14;;;;;;;9.43;9.13;;;20.90;58.30;;;;;;5033626;28;20441;-49
2022/04/28 08:42:43;;;;;;;9.13;8.83;;;20.90;58.40;;;;;;5033464;28;20540;-45
2022/04/28 08:45:10;;;;;;;8.83;8.53;;;20.90;58.30;;;;;;5033312;28;20531;-45
2022/04/28 08:47:37;;;;;;;8.33;8.03;;;20.80;58.30;;;;;;5032800;28;20449;-46
2022/04/28 08:50:05;;;;;;;9.93;9.63;;;20.90;58.30;;;;;;5033437;28;20481;-45
2022/04/28 08:52:32;;;;;;;9.13;8.93;;;20.90;58.10;;;;;;5034134;28;20479;-46
2022/04/28 08:54:59;;;;;;;8.73;8.53;;;20.90;58.20;;;;;;5033289;28;20469;-46
2022/04/28 08:57:28;;;;;;;8.97;8.67;;;20.90;58.00;;;;;;5033615;28;20476;-47
2022/04/28 08:59:56;;;;;;;9.47;9.17;;;20.90;58.00;;;;;;5033650;28;20532;-46
2022/04/28 09:02:24;;;;;;;9.30;9.00;;;20.90;57.90;;;;;;5033714;28;21001;-47
2022/04/28 09:04:51;;;;;;;8.63;8.43;;;20.90;58.00;;;;;;5033199;28;20452;-45
2022/04/28 09:07:32;;;;;;;9.13;8.83;;;20.90;58.10;;;;;;5032784;28;21018;-45
2022/04/28 09:09:58;;;;;;;9.33;8.83;;;20.90;58.00;;;;;;5033217;28;20484;-46
2022/04/28 09:12:25;;;;;;;9.70;9.40;;;20.90;57.90;;;;;;5033170;28;20943;-45
2022/04/28 09:14:55;;;;;;;9.00;8.70;;;20.90;57.90;;;;;;5032528;28;20453;-45
2022/04/28 09:17:22;;;;;;;8.10;7.80;;;20.90;57.80;;;;;;5032462;28;20453;-46
2022/04/28 09:19:49;;;;;;;8.57;8.27;;;20.90;57.70;;;;;;5032673;28;20452;-47
2022/04/28 09:22:15;;;;;;;7.93;7.73;;;20.90;57.80;;;;;;5032705;28;20939;-45
2022/04/28 09:24:44;;;;;;;7.73;7.50;;;20.90;57.80;;;;;;5032523;28;20450;-47
2022/04/28 09:27:12;;;;;;;8.67;8.37;;;20.90;57.70;;;;;;5032751;28;20449;-46
2022/04/28 09:29:40;;;;;;;9.20;8.90;;;20.90;57.70;;;;;;5032233;28;20489;-46
2022/04/28 09:32:11;;;;;;;8.13;7.80;;;20.90;57.60;;;;;;5032524;28;20449;-46
2022/04/28 09:34:46;;;;;;;8.57;8.37;;;20.90;57.70;;;;;;5032371;28;20441;-45
2022/04/28 09:37:17;;;;;;;8.20;8.00;;;20.90;57.70;;;;;;5032197;28;20806;-45
2022/04/28 09:42:39;;;;;;;8.10;7.83;;;20.90;57.40;;;;;;5032363;28;20544;-46
2022/04/28 09:45:07;;;;;;;7.83;7.63;;;21.00;57.50;;;;;;5032367;28;20483;-45
2022/04/28 09:47:36;;;;;;;8.03;7.83;;;20.90;57.40;;;;;;5032266;28;20819;-45
2022/04/28 09:50:13;;;;;;;8.07;7.87;;;20.90;57.50;;;;;;5032322;28;20485;-47
2022/04/28 09:52:42;;;;;;;8.47;8.27;;;21.00;57.40;;;;;;5032318;28;20445;-46
2022/04/28 09:55:09;;;;;;;8.97;8.67;;;21.00;57.50;;;;;;5032539;28;20982;-45
2022/04/28 09:57:36;;;;;;;8.30;8.10;;;21.00;57.40;;;;;;5033838;28;20457;-47
2022/04/28 10:00:04;;;;;;;8.00;7.80;;;21.00;57.40;;;;;;5035857;28;20444;-45
2022/04/28 10:02:32;;;;;;;9.03;8.77;;;21.00;57.40;;;;;;5036075;28;20441;-45
2022/04/28 10:05:00;;;;;;;9.03;8.63;;;21.00;57.70;;;;;;5040000;28;20931;-46
2022/04/28 10:07:28;;;;;;;8.70;8.40;;;21.00;58.10;;;;;;5051073;28;20779;-44
2022/04/28 10:09:55;;;;;;;8.70;8.50;;;21.00;58.60;;;;;;5051305;28;20484;-45
2022/04/28 10:12:25;;;;;;;9.63;9.13;;;21.10;58.50;;;;;;5051614;28;20459;-47
2022/04/28 10:14:54;;;;;;;9.47;9.07;;;21.10;58.50;;;;;;5044405;28;20986;-46
2022/04/28 10:17:27;;;;;;;9.70;9.30;;;21.10;58.60;;;;;;5031255;28;20875;-45
2022/04/28 10:19:56;;;;;;;9.30;9.00;;;21.10;58.90;;;;;;5031749;28;20446;-47
2022/04/28 10:22:30;;;;;;;8.70;8.50;;;21.10;59.10;;;;;;5031066;28;20817;-47
2022/04/28 10:33:18;;;;;;;9.30;9.00;;;21.10;58.90;;;;;;5034777;28;20415;-49
2022/04/28 10:35:46;;;;;;;9.57;8.93;;;21.10;58.80;;;;;;5034595;28;21098;-46
2022/04/28 10:38:21;;;;;;;8.40;8.20;;;21.10;58.70;;;;;;5034356;28;20453;-46
2022/04/28 10:40:58;;;;;;;9.10;8.90;;;21.10;58.40;;;;;;5034491;28;20858;-46
2022/04/28 10:43:27;;;;;;;9.23;8.93;;;21.10;58.20;;;;;;5034712;28;20502;-47
2022/04/28 10:45:56;;;;;;;9.03;8.83;;;21.10;58.30;;;;;;5034440;28;20481;-47
2022/04/28 10:48:28;;;;;;;8.60;8.40;;;21.10;58.20;;;;;;5034441;28;20943;-47
2022/04/28 10:51:03;;;;;;;8.43;8.23;;;21.10;58.20;;;;;;5034334;28;20481;-47
2022/04/28 10:53:32;;;;;;;9.40;9.10;;;21.10;58.00;;;;;;5034295;28;20546;-47
2022/04/28 10:56:08;;;;;;;9.37;9.17;;;21.20;58.00;;;;;;5034278;28;20477;-46
2022/04/28 10:58:35;;;;;;;8.53;8.33;;;21.20;57.80;;;;;;5034186;28;20536;-47
2022/04/28 11:01:04;;;;;;;10.13;9.37;;;21.20;57.70;;;;;;5034138;28;20957;-46
2022/04/28 11:03:47;;;;;;;8.67;8.47;;;21.20;57.50;;;;;;5034199;28;20457;-49
2022/04/28 11:06:15;;;;;;;7.83;7.63;;;21.20;57.40;;;;;;5033980;28;20873;-46
2022/04/28 11:08:48;;;;;;;7.77;7.57;;;21.20;57.30;;;;;;5034009;28;20879;-47
2022/04/28 11:11:15;;;;;;;8.53;8.33;;;21.20;57.30;;;;;;5033927;28;20481;-47
2022/04/28 11:13:46;;;;;;;8.60;8.40;;;21.20;57.20;;;;;;5033952;28;20441;-47
2022/04/28 11:16:14;;;;;;;8.57;8.37;;;21.20;57.20;;;;;;5033809;28;20469;-47
2022/04/28 11:18:42;;;;;;;7.73;7.50;;;21.20;57.10;;;;;;5033664;28;20792;-47
2022/04/28 11:21:10;;;;;;;8.60;8.40;;;21.30;57.00;;;;;;5033910;28;20528;-51
2022/04/28 11:23:40;;;;;;;8.47;8.27;;;21.30;56.90;;;;;;5033845;28;20445;-47
2022/04/28 11:26:09;;;;;;;8.90;8.50;;;21.30;57.30;;;;;;5033943;28;20982;-47
2022/04/28 11:28:37;;;;;;;8.47;8.20;;;21.30;56.70;;;;;;5033577;28;20450;-47
2022/04/28 11:31:08;;;;;;;8.50;8.30;;;21.30;56.60;;;;;;5033515;28;20492;-47
2022/04/28 11:33:35;;;;;;;8.53;8.33;;;21.30;56.50;;;;;;5033848;28;20442;-48
2022/04/28 11:36:02;;;;;;;8.80;8.40;;;21.30;56.40;;;;;;5033755;28;20991;-48
2022/04/28 11:38:31;;;;;;;8.57;8.37;;;21.30;56.40;;;;;;5033264;28;20453;-50
2022/04/28 11:41:03;;;;;;;8.60;8.40;;;21.40;56.40;;;;;;5033464;28;20515;-49
2022/04/28 11:43:34;;;;;;;9.63;9.33;;;21.40;56.20;;;;;;5033585;28;20484;-47
2022/04/28 11:46:02;;;;;;;9.00;8.80;;;21.40;56.20;;;;;;5033180;28;20472;-48
2022/04/28 11:48:29;;;;;;;9.20;8.90;;;21.40;55.90;;;;;;5033280;28;20445;-48
2022/04/28 11:51:02;;;;;;;10.73;10.43;;;21.40;55.90;;;;;;5033211;28;20477;-47
2022/04/28 11:53:40;;;;;;;9.30;9.10;;;21.50;55.70;;;;;;5033602;28;20441;-52
2022/04/28 11:56:15;;;;;;;9.63;9.37;;;21.50;55.50;;;;;;5033259;28;20471;-49
2022/04/28 11:58:47;;;;;;;9.77;9.47;;;21.50;55.60;;;;;;5033031;28;20507;-47
2022/04/28 12:01:14;;;;;;;9.60;9.30;;;21.50;55.40;;;;;;5033083;28;20465;-48
2022/04/28 12:03:52;;;;;;;8.40;8.20;;;21.50;55.20;;;;;;5033012;28;20445;-47
2022/04/28 12:06:20;;;;;;;8.33;8.13;;;21.60;55.10;;;;;;5032889;28;20966;-48
2022/04/28 12:08:55;;;;;;;8.77;8.57;;;21.60;55.00;;;;;;5033067;28;20449;-47
2022/04/28 12:14:26;;;;;;;9.43;9.13;;;21.70;55.00;;;;;;5032750;28;20424;-49
2022/04/28 12:19:52;;;;;;;9.50;9.10;;;21.80;54.60;;;;;;5032820;28;20839;-49
2022/04/28 12:22:35;;;;;;;9.67;9.37;;;21.90;54.40;;;;;;5032821;28;20459;-48
2022/04/28 12:25:04;;;;;;;9.73;9.43;;;22.00;54.20;;;;;;5032510;28;20466;-49
2022/04/28 12:27:48;;;;;;;9.40;9.00;;;22.10;54.10;;;;;;5032273;28;20548;-48
2022/04/28 12:30:18;;;;;;;8.73;8.43;;;22.10;53.90;;;;;;5032657;28;20539;-52
2022/04/28 12:32:47;;;;;;;9.47;9.27;;;22.20;53.80;;;;;;5032451;28;20445;-49
2022/04/28 12:35:29;;;;;;;9.57;9.30;;;22.30;53.60;;;;;;5032391;28;20473;-46
2022/04/28 12:37:59;;;;;;;9.87;9.67;;;22.40;53.50;;;;;;5032374;28;20528;-49
2022/04/28 12:40:27;;;;;;;9.53;9.27;;;22.40;53.70;;;;;;5032190;28;20939;-48
2022/04/28 12:42:55;;;;;;;8.47;8.27;;;22.50;53.30;;;;;;5032249;28;20846;-48
2022/04/28 12:45:47;;;;;;;9.20;9.00;;;22.50;53.30;;;;;;5032754;28;20480;-47
2022/04/28 12:48:29;;;;;;;9.23;9.03;;;22.50;53.20;;;;;;5032120;28;20504;-45
2022/04/28 12:51:13;;;;;;;8.30;8.10;;;22.50;53.10;;;;;;5031638;28;20492;-48
2022/04/28 12:53:42;;;;;;;9.20;9.00;;;22.60;53.10;;;;;;5032310;28;20449;-45
2022/04/28 12:56:10;;;;;;;9.00;8.80;;;22.60;53.10;;;;;;5031944;28;20473;-47
2022/04/28 12:58:41;;;;;;;8.80;8.60;;;22.60;53.00;;;;;;5031748;28;20457;-47
2022/04/28 13:01:14;;;;;;;7.60;7.50;;;22.60;52.90;;;;;;5032001;28;20448;-48
2022/04/28 13:03:42;;;;;;;8.73;8.43;;;22.70;52.90;;;;;;5032172;28;20485;-46
2022/04/28 13:06:09;;;;;;;8.67;8.47;;;22.70;52.90;;;;;;5031634;28;20461;-45
2022/04/28 13:08:36;;;;;;;9.00;8.70;;;22.70;52.90;;;;;;5031665;28;20449;-45
2022/04/28 13:11:03;;;;;;;8.90;8.50;;;22.70;52.90;;;;;;5031710;28;20481;-44
2022/04/28 13:13:30;;;;;;;7.77;7.57;;;22.80;52.90;;;;;;5031823;28;20445;-44
2022/04/28 13:15:57;;;;;;;8.43;8.23;;;22.80;52.90;;;;;;5031766;28;20847;-45
2022/04/28 13:18:25;;;;;;;8.60;8.40;;;22.80;52.90;;;;;;5031587;28;20448;-49
2022/04/28 13:20:52;;;;;;;8.77;8.47;;;22.80;52.90;;;;;;5031857;28;20441;-46
2022/04/28 13:23:19;;;;;;;8.60;8.40;;;22.80;52.90;;;;;;5031797;28;20969;-45
2022/04/28 13:25:45;;;;;;;7.90;7.70;;;22.90;52.90;;;;;;5031479;28;20802;-47
2022/04/28 13:28:12;;;;;;;8.33;8.13;;;22.90;52.90;;;;;;5031716;28;20452;-48